sensor_id;sensor_type;location;lat;lon;timestamp;temperature;humidity
20070;DHT22;10195;50.868;4.382;2023-09-07T00:01:13;21.40;99.90
20070;DHT22;10195;50.868;4.382;2023-09-07T00:03:41;21.30;99.90
20070;DHT22;10195;50.868;4.382;2023-09-07T00:06:08;21.30;99.90
20070;DHT22;10195;50.868;4.382;2023-09-07T00:08:34;21.20;99.90
20070;DHT22;10195;50.868;4.382;2023-09-07T00:11:04;21.20;99.90
20070;DHT22;10195;50.868;4.382;2023-09-07T00:13:30;21.20;99.90
20070;DHT22;10195;50.868;4.382;2023-09-07T00:15:59;21.20;99.90
20070;DHT22;10195;50.868;4.382;2023-09-07T00:18:25;21.20;99.90
20070;DHT22;10195;50.868;4.382;2023-09-07T00:20:50;21.30;99.90
20070;DHT22;10195;50.868;4.382;2023-09-07T00:23:16;21.10;99.90
20070;DHT22;10195;50.868;4.382;2023-09-07T00:25:41;21.10;99.90
20070;DHT22;10195;50.868;4.382;2023-09-07T00:28:07;21.10;99.90
20070;DHT22;10195;50.868;4.382;2023-09-07T00:30:33;21.00;99.90
20070;DHT22;10195;50.868;4.382;2023-09-07T00:32:58;21.00;99.90
20070;DHT22;10195;50.868;4.382;2023-09-07T00:35:24;21.00;99.90
20070;DHT22;10195;50.868;4.382;2023-09-07T00:37:50;20.90;99.90
20070;DHT22;10195;50.868;4.382;2023-09-07T00:40:15;20.80;99.90
20070;DHT22;10195;50.868;4.382;2023-09-07T00:42:41;20.70;99.90
20070;DHT22;10195;50.868;4.382;2023-09-07T00:45:07;20.60;99.90
20070;DHT22;10195;50.868;4.382;2023-09-07T00:47:34;20.60;99.90
20070;DHT22;10195;50.868;4.382;2023-09-07T00:50:07;20.60;99.90
20070;DHT22;10195;50.868;4.382;2023-09-07T00:52:33;20.60;99.90
20070;DHT22;10195;50.868;4.382;2023-09-07T00:55:03;20.60;99.90
20070;DHT22;10195;50.868;4.382;2023-09-07T00:57:29;20.50;99.90
20070;DHT22;10195;50.868;4.382;2023-09-07T00:59:55;20.50;99.90
20070;DHT22;10195;50.868;4.382;2023-09-07T01:02:21;20.40;99.90
20070;DHT22;10195;50.868;4.382;2023-09-07T01:04:47;20.40;99.90
20070;DHT22;10195;50.868;4.382;2023-09-07T01:07:19;20.30;99.90
20070;DHT22;10195;50.868;4.382;2023-09-07T01:09:51;20.30;99.90
20070;DHT22;10195;50.868;4.382;2023-09-07T01:12:17;20.40;99.90
20070;DHT22;10195;50.868;4.382;2023-09-07T01:14:43;20.40;99.90
20070;DHT22;10195;50.868;4.382;2023-09-07T01:17:09;20.40;99.90
20070;DHT22;10195;50.868;4.382;2023-09-07T01:19:36;20.40;99.90
20070;DHT22;10195;50.868;4.382;2023-09-07T01:22:02;20.40;99.90
20070;DHT22;10195;50.868;4.382;2023-09-07T01:24:30;20.40;99.90
20070;DHT22;10195;50.868;4.382;2023-09-07T01:26:57;20.40;99.90
20070;DHT22;10195;50.868;4.382;2023-09-07T01:29:23;20.40;99.90
20070;DHT22;10195;50.868;4.382;2023-09-07T01:31:49;20.40;99.90
20070;DHT22;10195;50.868;4.382;2023-09-07T01:34:14;20.40;99.90
20070;DHT22;10195;50.868;4.382;2023-09-07T01:36:40;20.40;99.90
20070;DHT22;10195;50.868;4.382;2023-09-07T01:39:07;20.40;99.90
20070;DHT22;10195;50.868;4.382;2023-09-07T01:41:34;20.40;99.90
20070;DHT22;10195;50.868;4.382;2023-09-07T01:44:00;20.30;99.90
20070;DHT22;10195;50.868;4.382;2023-09-07T01:46:25;20.30;99.90
20070;DHT22;10195;50.868;4.382;2023-09-07T01:48:51;20.30;99.90
20070;DHT22;10195;50.868;4.382;2023-09-07T01:51:17;20.20;99.90
20070;DHT22;10195;50.868;4.382;2023-09-07T01:53:42;20.10;99.90
20070;DHT22;10195;50.868;4.382;2023-09-07T01:56:09;20.20;99.90
20070;DHT22;10195;50.868;4.382;2023-09-07T01:58:34;20.10;99.90
20070;DHT22;10195;50.868;4.382;2023-09-07T02:01:00;20.10;99.90
20070;DHT22;10195;50.868;4.382;2023-09-07T02:03:26;20.10;99.90
20070;DHT22;10195;50.868;4.382;2023-09-07T02:05:55;20.10;99.90
20070;DHT22;10195;50.868;4.382;2023-09-07T02:08:21;20.10;99.90
20070;DHT22;10195;50.868;4.382;2023-09-07T02:10:46;20.10;99.90
20070;DHT22;10195;50.868;4.382;2023-09-07T02:13:12;20.00;99.90
20070;DHT22;10195;50.868;4.382;2023-09-07T02:15:38;20.00;99.90
20070;DHT22;10195;50.868;4.382;2023-09-07T02:18:05;19.90;99.90
20070;DHT22;10195;50.868;4.382;2023-09-07T02:20:32;20.00;99.90
20070;DHT22;10195;50.868;4.382;2023-09-07T02:22:57;20.00;99.90
20070;DHT22;10195;50.868;4.382;2023-09-07T02:25:23;20.00;99.90
20070;DHT22;10195;50.868;4.382;2023-09-07T02:27:49;19.90;99.90
20070;DHT22;10195;50.868;4.382;2023-09-07T02:30:15;19.80;99.90
20070;DHT22;10195;50.868;4.382;2023-09-07T02:32:43;19.80;99.90
20070;DHT22;10195;50.868;4.382;2023-09-07T02:35:09;19.80;99.90
20070;DHT22;10195;50.868;4.382;2023-09-07T02:37:36;19.80;99.90
20070;DHT22;10195;50.868;4.382;2023-09-07T02:40:02;19.80;99.90
20070;DHT22;10195;50.868;4.382;2023-09-07T02:42:32;19.80;99.90
20070;DHT22;10195;50.868;4.382;2023-09-07T02:44:57;19.80;99.90
20070;DHT22;10195;50.868;4.382;2023-09-07T02:47:23;19.80;99.90
20070;DHT22;10195;50.868;4.382;2023-09-07T02:49:48;19.90;99.90
20070;DHT22;10195;50.868;4.382;2023-09-07T02:52:14;19.90;99.90
20070;DHT22;10195;50.868;4.382;2023-09-07T02:54:40;19.80;99.90
20070;DHT22;10195;50.868;4.382;2023-09-07T02:57:07;19.80;99.90
20070;DHT22;10195;50.868;4.382;2023-09-07T02:59:32;19.80;99.90
20070;DHT22;10195;50.868;4.382;2023-09-07T03:01:58;19.80;99.90
20070;DHT22;10195;50.868;4.382;2023-09-07T03:04:24;19.80;99.90
20070;DHT22;10195;50.868;4.382;2023-09-07T03:06:49;19.70;99.90
20070;DHT22;10195;50.868;4.382;2023-09-07T03:09:15;19.70;99.90
20070;DHT22;10195;50.868;4.382;2023-09-07T03:11:41;19.60;99.90
20070;DHT22;10195;50.868;4.382;2023-09-07T03:14:06;19.60;99.90
20070;DHT22;10195;50.868;4.382;2023-09-07T03:16:32;19.50;99.90
20070;DHT22;10195;50.868;4.382;2023-09-07T03:18:58;19.50;99.90
20070;DHT22;10195;50.868;4.382;2023-09-07T03:21:23;19.50;99.90
20070;DHT22;10195;50.868;4.382;2023-09-07T03:23:55;19.50;99.90
20070;DHT22;10195;50.868;4.382;2023-09-07T03:26:21;19.40;99.90
20070;DHT22;10195;50.868;4.382;2023-09-07T03:28:46;19.50;99.90
20070;DHT22;10195;50.868;4.382;2023-09-07T03:31:12;19.60;99.90
20070;DHT22;10195;50.868;4.382;2023-09-07T03:33:38;19.50;99.90
20070;DHT22;10195;50.868;4.382;2023-09-07T03:36:04;19.50;99.90
20070;DHT22;10195;50.868;4.382;2023-09-07T03:38:30;19.60;99.90
20070;DHT22;10195;50.868;4.382;2023-09-07T03:40:55;19.60;99.90
20070;DHT22;10195;50.868;4.382;2023-09-07T03:43:21;19.60;99.90
20070;DHT22;10195;50.868;4.382;2023-09-07T03:45:47;19.60;99.90
20070;DHT22;10195;50.868;4.382;2023-09-07T03:48:12;19.70;99.90
20070;DHT22;10195;50.868;4.382;2023-09-07T03:50:38;19.70;99.90
20070;DHT22;10195;50.868;4.382;2023-09-07T03:53:03;19.60;99.90
20070;DHT22;10195;50.868;4.382;2023-09-07T03:55:29;19.60;99.90
20070;DHT22;10195;50.868;4.382;2023-09-07T03:57:55;19.50;99.90
20070;DHT22;10195;50.868;4.382;2023-09-07T04:00:20;19.50;99.90
20070;DHT22;10195;50.868;4.382;2023-09-07T04:02:46;19.50;99.90
20070;DHT22;10195;50.868;4.382;2023-09-07T04:05:12;19.50;99.90
20070;DHT22;10195;50.868;4.382;2023-09-07T04:07:38;19.40;99.90
20070;DHT22;10195;50.868;4.382;2023-09-07T04:10:04;19.40;99.90
20070;DHT22;10195;50.868;4.382;2023-09-07T04:12:30;19.40;99.90
20070;DHT22;10195;50.868;4.382;2023-09-07T04:14:56;19.30;99.90
20070;DHT22;10195;50.868;4.382;2023-09-07T04:17:22;19.30;99.90
20070;DHT22;10195;50.868;4.382;2023-09-07T04:19:48;19.30;99.90
20070;DHT22;10195;50.868;4.382;2023-09-07T04:22:13;19.30;99.90
20070;DHT22;10195;50.868;4.382;2023-09-07T04:24:39;19.30;99.90
20070;DHT22;10195;50.868;4.382;2023-09-07T04:27:05;19.20;99.90
20070;DHT22;10195;50.868;4.382;2023-09-07T04:29:30;19.20;99.90
20070;DHT22;10195;50.868;4.382;2023-09-07T04:31:56;19.10;99.90
20070;DHT22;10195;50.868;4.382;2023-09-07T04:34:22;19.10;99.90
20070;DHT22;10195;50.868;4.382;2023-09-07T04:36:48;19.10;99.90
20070;DHT22;10195;50.868;4.382;2023-09-07T04:39:14;19.10;99.90
20070;DHT22;10195;50.868;4.382;2023-09-07T04:41:40;19.00;99.90
20070;DHT22;10195;50.868;4.382;2023-09-07T04:44:06;19.00;99.90
20070;DHT22;10195;50.868;4.382;2023-09-07T04:46:32;18.90;99.90
20070;DHT22;10195;50.868;4.382;2023-09-07T04:48:57;19.00;99.90
20070;DHT22;10195;50.868;4.382;2023-09-07T04:51:23;19.00;99.90
20070;DHT22;10195;50.868;4.382;2023-09-07T04:53:51;19.10;99.90
20070;DHT22;10195;50.868;4.382;2023-09-07T04:56:16;19.10;99.90
20070;DHT22;10195;50.868;4.382;2023-09-07T04:58:42;19.10;99.90
20070;DHT22;10195;50.868;4.382;2023-09-07T05:01:11;19.10;99.90
20070;DHT22;10195;50.868;4.382;2023-09-07T05:03:37;19.00;99.90
20070;DHT22;10195;50.868;4.382;2023-09-07T05:06:04;19.00;99.90
20070;DHT22;10195;50.868;4.382;2023-09-07T05:08:30;19.00;99.90
20070;DHT22;10195;50.868;4.382;2023-09-07T05:10:57;18.90;99.90
20070;DHT22;10195;50.868;4.382;2023-09-07T05:13:24;18.90;99.90
20070;DHT22;10195;50.868;4.382;2023-09-07T05:15:51;18.90;99.90
20070;DHT22;10195;50.868;4.382;2023-09-07T05:18:18;18.90;99.90
20070;DHT22;10195;50.868;4.382;2023-09-07T05:20:44;19.00;99.90
20070;DHT22;10195;50.868;4.382;2023-09-07T05:23:15;19.00;99.90
20070;DHT22;10195;50.868;4.382;2023-09-07T05:25:59;19.00;99.90
20070;DHT22;10195;50.868;4.382;2023-09-07T05:28:24;19.00;99.90
20070;DHT22;10195;50.868;4.382;2023-09-07T05:30:50;19.00;99.90
20070;DHT22;10195;50.868;4.382;2023-09-07T05:33:16;19.10;99.90
20070;DHT22;10195;50.868;4.382;2023-09-07T05:35:42;19.10;99.90
20070;DHT22;10195;50.868;4.382;2023-09-07T05:38:08;19.10;99.90
20070;DHT22;10195;50.868;4.382;2023-09-07T05:40:43;19.10;99.90
20070;DHT22;10195;50.868;4.382;2023-09-07T05:43:10;19.10;99.90
20070;DHT22;10195;50.868;4.382;2023-09-07T05:45:40;19.10;99.90
20070;DHT22;10195;50.868;4.382;2023-09-07T05:48:07;19.00;99.90
20070;DHT22;10195;50.868;4.382;2023-09-07T05:50:37;19.00;99.90
20070;DHT22;10195;50.868;4.382;2023-09-07T05:53:04;19.10;99.90
20070;DHT22;10195;50.868;4.382;2023-09-07T05:55:30;19.20;99.90
20070;DHT22;10195;50.868;4.382;2023-09-07T05:57:56;19.20;99.90
20070;DHT22;10195;50.868;4.382;2023-09-07T06:00:23;19.30;99.90
20070;DHT22;10195;50.868;4.382;2023-09-07T06:02:49;19.30;99.90
20070;DHT22;10195;50.868;4.382;2023-09-07T06:05:15;19.30;99.90
20070;DHT22;10195;50.868;4.382;2023-09-07T06:07:41;19.40;99.90
20070;DHT22;10195;50.868;4.382;2023-09-07T06:10:07;19.40;99.90
20070;DHT22;10195;50.868;4.382;2023-09-07T06:12:33;19.30;99.90
20070;DHT22;10195;50.868;4.382;2023-09-07T06:15:00;19.30;99.90
20070;DHT22;10195;50.868;4.382;2023-09-07T06:17:27;19.40;99.90
20070;DHT22;10195;50.868;4.382;2023-09-07T06:19:53;19.40;99.90
20070;DHT22;10195;50.868;4.382;2023-09-07T06:22:19;19.50;99.90
20070;DHT22;10195;50.868;4.382;2023-09-07T06:24:44;19.60;99.90
20070;DHT22;10195;50.868;4.382;2023-09-07T06:27:10;20.00;99.90
20070;DHT22;10195;50.868;4.382;2023-09-07T06:29:35;20.40;99.90
20070;DHT22;10195;50.868;4.382;2023-09-07T06:32:01;21.20;99.90
20070;DHT22;10195;50.868;4.382;2023-09-07T06:34:27;22.00;99.90
20070;DHT22;10195;50.868;4.382;2023-09-07T06:36:52;23.30;99.90
20070;DHT22;10195;50.868;4.382;2023-09-07T06:39:18;24.00;99.90
20070;DHT22;10195;50.868;4.382;2023-09-07T06:41:45;24.50;99.90
20070;DHT22;10195;50.868;4.382;2023-09-07T06:44:11;24.90;99.90
20070;DHT22;10195;50.868;4.382;2023-09-07T06:46:37;25.10;99.90
20070;DHT22;10195;50.868;4.382;2023-09-07T06:49:02;25.50;99.90
20070;DHT22;10195;50.868;4.382;2023-09-07T06:51:30;26.20;99.90
20070;DHT22;10195;50.868;4.382;2023-09-07T06:53:55;26.80;99.90
20070;DHT22;10195;50.868;4.382;2023-09-07T06:56:21;27.40;99.90
20070;DHT22;10195;50.868;4.382;2023-09-07T06:58:47;27.80;99.90
20070;DHT22;10195;50.868;4.382;2023-09-07T07:01:12;27.70;99.90
20070;DHT22;10195;50.868;4.382;2023-09-07T07:03:38;27.50;99.90
20070;DHT22;10195;50.868;4.382;2023-09-07T07:06:04;27.70;99.90
20070;DHT22;10195;50.868;4.382;2023-09-07T07:08:29;27.10;99.90
20070;DHT22;10195;50.868;4.382;2023-09-07T07:10:55;27.60;99.90
20070;DHT22;10195;50.868;4.382;2023-09-07T07:13:20;28.20;99.90
20070;DHT22;10195;50.868;4.382;2023-09-07T07:15:46;28.60;99.90
20070;DHT22;10195;50.868;4.382;2023-09-07T07:18:12;29.00;99.90
20070;DHT22;10195;50.868;4.382;2023-09-07T07:20:39;29.30;99.90
20070;DHT22;10195;50.868;4.382;2023-09-07T07:23:05;29.60;99.90
20070;DHT22;10195;50.868;4.382;2023-09-07T07:25:33;29.80;99.90
20070;DHT22;10195;50.868;4.382;2023-09-07T07:28:06;29.70;99.90
20070;DHT22;10195;50.868;4.382;2023-09-07T07:30:36;30.10;99.90
20070;DHT22;10195;50.868;4.382;2023-09-07T07:33:03;30.40;99.90
20070;DHT22;10195;50.868;4.382;2023-09-07T07:35:35;30.00;99.90
20070;DHT22;10195;50.868;4.382;2023-09-07T07:38:02;30.10;99.90
20070;DHT22;10195;50.868;4.382;2023-09-07T07:40:29;30.70;99.90
20070;DHT22;10195;50.868;4.382;2023-09-07T07:42:55;30.50;99.90
20070;DHT22;10195;50.868;4.382;2023-09-07T07:45:21;30.60;99.90
20070;DHT22;10195;50.868;4.382;2023-09-07T07:47:49;30.70;99.90
20070;DHT22;10195;50.868;4.382;2023-09-07T07:50:17;30.50;99.90
20070;DHT22;10195;50.868;4.382;2023-09-07T07:52:44;30.80;99.90
20070;DHT22;10195;50.868;4.382;2023-09-07T07:55:09;31.10;99.90
20070;DHT22;10195;50.868;4.382;2023-09-07T07:57:35;31.50;99.90
20070;DHT22;10195;50.868;4.382;2023-09-07T08:00:02;30.40;99.90
20070;DHT22;10195;50.868;4.382;2023-09-07T08:02:29;31.00;99.90
20070;DHT22;10195;50.868;4.382;2023-09-07T08:04:55;30.70;99.90
20070;DHT22;10195;50.868;4.382;2023-09-07T08:07:21;30.50;99.90
20070;DHT22;10195;50.868;4.382;2023-09-07T08:09:47;30.20;99.90
20070;DHT22;10195;50.868;4.382;2023-09-07T08:12:15;31.10;99.90
20070;DHT22;10195;50.868;4.382;2023-09-07T08:14:40;31.50;99.90
20070;DHT22;10195;50.868;4.382;2023-09-07T08:17:08;31.70;99.90
20070;DHT22;10195;50.868;4.382;2023-09-07T08:19:33;32.30;99.90
20070;DHT22;10195;50.868;4.382;2023-09-07T08:21:59;32.10;99.90
20070;DHT22;10195;50.868;4.382;2023-09-07T08:24:25;33.00;99.90
20070;DHT22;10195;50.868;4.382;2023-09-07T08:26:50;33.00;99.90
20070;DHT22;10195;50.868;4.382;2023-09-07T08:29:17;31.50;99.90
20070;DHT22;10195;50.868;4.382;2023-09-07T08:31:42;32.30;99.90
20070;DHT22;10195;50.868;4.382;2023-09-07T08:34:10;33.10;99.90
20070;DHT22;10195;50.868;4.382;2023-09-07T08:36:40;32.80;99.90
20070;DHT22;10195;50.868;4.382;2023-09-07T08:39:06;32.80;99.90
20070;DHT22;10195;50.868;4.382;2023-09-07T08:41:42;33.20;99.90
20070;DHT22;10195;50.868;4.382;2023-09-07T08:44:16;32.90;99.90
20070;DHT22;10195;50.868;4.382;2023-09-07T08:46:43;31.70;99.90
20070;DHT22;10195;50.868;4.382;2023-09-07T08:49:09;31.40;99.90
20070;DHT22;10195;50.868;4.382;2023-09-07T08:51:37;30.70;99.90
20070;DHT22;10195;50.868;4.382;2023-09-07T08:54:07;30.90;99.90
20070;DHT22;10195;50.868;4.382;2023-09-07T08:56:35;30.80;99.90
20070;DHT22;10195;50.868;4.382;2023-09-07T08:59:01;30.90;99.90
20070;DHT22;10195;50.868;4.382;2023-09-07T09:01:27;31.40;99.90
20070;DHT22;10195;50.868;4.382;2023-09-07T09:03:54;32.10;99.90
20070;DHT22;10195;50.868;4.382;2023-09-07T09:06:21;32.00;99.90
20070;DHT22;10195;50.868;4.382;2023-09-07T09:08:55;31.90;99.90
20070;DHT22;10195;50.868;4.382;2023-09-07T09:11:22;32.10;99.90
20070;DHT22;10195;50.868;4.382;2023-09-07T09:13:50;31.80;99.90
20070;DHT22;10195;50.868;4.382;2023-09-07T09:16:16;31.00;99.90
20070;DHT22;10195;50.868;4.382;2023-09-07T09:18:53;30.60;99.90
20070;DHT22;10195;50.868;4.382;2023-09-07T09:21:20;30.70;99.90
20070;DHT22;10195;50.868;4.382;2023-09-07T09:23:48;30.80;99.90
20070;DHT22;10195;50.868;4.382;2023-09-07T09:26:18;30.50;99.90
20070;DHT22;10195;50.868;4.382;2023-09-07T09:28:44;30.70;99.90
20070;DHT22;10195;50.868;4.382;2023-09-07T09:31:13;31.00;99.90
20070;DHT22;10195;50.868;4.382;2023-09-07T09:33:40;31.80;99.90
20070;DHT22;10195;50.868;4.382;2023-09-07T09:36:07;33.00;99.90
20070;DHT22;10195;50.868;4.382;2023-09-07T09:38:36;33.80;99.90
20070;DHT22;10195;50.868;4.382;2023-09-07T09:41:02;33.10;99.90
20070;DHT22;10195;50.868;4.382;2023-09-07T09:43:31;32.20;99.90
20070;DHT22;10195;50.868;4.382;2023-09-07T09:45:57;31.50;99.90
20070;DHT22;10195;50.868;4.382;2023-09-07T09:48:27;31.30;99.90
20070;DHT22;10195;50.868;4.382;2023-09-07T09:50:53;31.10;99.90
20070;DHT22;10195;50.868;4.382;2023-09-07T09:53:19;30.80;99.90
20070;DHT22;10195;50.868;4.382;2023-09-07T09:55:46;30.40;99.90
20070;DHT22;10195;50.868;4.382;2023-09-07T09:58:16;30.90;99.90
20070;DHT22;10195;50.868;4.382;2023-09-07T10:01:00;31.10;99.90
20070;DHT22;10195;50.868;4.382;2023-09-07T10:03:37;29.90;99.90
20070;DHT22;10195;50.868;4.382;2023-09-07T10:06:10;30.10;99.90
20070;DHT22;10195;50.868;4.382;2023-09-07T10:08:36;30.50;99.90
20070;DHT22;10195;50.868;4.382;2023-09-07T10:11:07;30.00;99.90
20070;DHT22;10195;50.868;4.382;2023-09-07T10:13:33;29.60;99.90
20070;DHT22;10195;50.868;4.382;2023-09-07T10:16:02;29.90;99.90
20070;DHT22;10195;50.868;4.382;2023-09-07T10:18:38;29.70;99.90
20070;DHT22;10195;50.868;4.382;2023-09-07T10:21:05;29.30;99.90
20070;DHT22;10195;50.868;4.382;2023-09-07T10:23:42;28.80;99.90
20070;DHT22;10195;50.868;4.382;2023-09-07T10:26:15;28.80;99.90
20070;DHT22;10195;50.868;4.382;2023-09-07T10:28:42;28.80;99.90
20070;DHT22;10195;50.868;4.382;2023-09-07T10:31:17;28.80;99.90
20070;DHT22;10195;50.868;4.382;2023-09-07T10:33:43;29.00;99.90
20070;DHT22;10195;50.868;4.382;2023-09-07T10:36:20;29.30;99.90
20070;DHT22;10195;50.868;4.382;2023-09-07T10:38:46;29.00;99.90
20070;DHT22;10195;50.868;4.382;2023-09-07T10:41:12;29.10;99.90
20070;DHT22;10195;50.868;4.382;2023-09-07T10:43:55;29.00;99.90
20070;DHT22;10195;50.868;4.382;2023-09-07T10:46:22;28.80;99.90
20070;DHT22;10195;50.868;4.382;2023-09-07T10:48:52;28.80;99.90
20070;DHT22;10195;50.868;4.382;2023-09-07T10:51:19;28.70;99.90
20070;DHT22;10195;50.868;4.382;2023-09-07T10:53:45;28.90;99.90
20070;DHT22;10195;50.868;4.382;2023-09-07T10:56:11;29.10;99.90
20070;DHT22;10195;50.868;4.382;2023-09-07T10:58:37;29.00;99.90
20070;DHT22;10195;50.868;4.382;2023-09-07T11:01:08;29.20;99.90
20070;DHT22;10195;50.868;4.382;2023-09-07T11:03:37;29.40;99.90
20070;DHT22;10195;50.868;4.382;2023-09-07T11:06:14;29.00;99.90
20070;DHT22;10195;50.868;4.382;2023-09-07T11:08:42;29.00;99.90
20070;DHT22;10195;50.868;4.382;2023-09-07T11:11:08;29.10;99.90
20070;DHT22;10195;50.868;4.382;2023-09-07T11:13:34;29.00;99.90
20070;DHT22;10195;50.868;4.382;2023-09-07T11:16:00;29.30;99.90
20070;DHT22;10195;50.868;4.382;2023-09-07T11:18:30;29.50;99.90
20070;DHT22;10195;50.868;4.382;2023-09-07T11:20:56;29.40;99.90
20070;DHT22;10195;50.868;4.382;2023-09-07T11:23:22;29.40;99.90
20070;DHT22;10195;50.868;4.382;2023-09-07T11:25:50;29.00;99.90
20070;DHT22;10195;50.868;4.382;2023-09-07T11:28:18;28.70;99.90
20070;DHT22;10195;50.868;4.382;2023-09-07T11:30:55;29.10;99.90
20070;DHT22;10195;50.868;4.382;2023-09-07T11:33:22;29.10;99.90
20070;DHT22;10195;50.868;4.382;2023-09-07T11:35:48;29.00;99.90
20070;DHT22;10195;50.868;4.382;2023-09-07T11:38:15;29.10;99.90
20070;DHT22;10195;50.868;4.382;2023-09-07T11:40:42;29.10;99.90
20070;DHT22;10195;50.868;4.382;2023-09-07T11:43:13;29.20;99.90
20070;DHT22;10195;50.868;4.382;2023-09-07T11:45:40;29.10;99.90
20070;DHT22;10195;50.868;4.382;2023-09-07T11:48:06;29.10;99.90
20070;DHT22;10195;50.868;4.382;2023-09-07T11:50:34;29.40;99.90
20070;DHT22;10195;50.868;4.382;2023-09-07T11:53:00;29.60;99.90
20070;DHT22;10195;50.868;4.382;2023-09-07T11:55:26;29.70;99.90
20070;DHT22;10195;50.868;4.382;2023-09-07T11:57:52;29.50;99.90
20070;DHT22;10195;50.868;4.382;2023-09-07T12:00:19;29.60;99.90
20070;DHT22;10195;50.868;4.382;2023-09-07T12:02:44;29.40;99.90
20070;DHT22;10195;50.868;4.382;2023-09-07T12:05:10;29.40;99.90
20070;DHT22;10195;50.868;4.382;2023-09-07T12:07:40;29.40;99.90
20070;DHT22;10195;50.868;4.382;2023-09-07T12:10:06;29.70;99.90
20070;DHT22;10195;50.868;4.382;2023-09-07T12:12:36;29.90;99.90
20070;DHT22;10195;50.868;4.382;2023-09-07T12:15:02;30.00;99.90
20070;DHT22;10195;50.868;4.382;2023-09-07T12:17:30;30.00;99.90
20070;DHT22;10195;50.868;4.382;2023-09-07T12:19:55;29.80;99.90
20070;DHT22;10195;50.868;4.382;2023-09-07T12:22:21;30.00;99.90
20070;DHT22;10195;50.868;4.382;2023-09-07T12:24:46;29.90;99.90
20070;DHT22;10195;50.868;4.382;2023-09-07T12:27:12;29.80;99.90
20070;DHT22;10195;50.868;4.382;2023-09-07T12:29:38;29.50;99.90
20070;DHT22;10195;50.868;4.382;2023-09-07T12:32:04;29.70;99.90
20070;DHT22;10195;50.868;4.382;2023-09-07T12:34:29;29.70;99.90
20070;DHT22;10195;50.868;4.382;2023-09-07T12:36:55;29.80;99.90
20070;DHT22;10195;50.868;4.382;2023-09-07T12:39:21;29.80;99.90
20070;DHT22;10195;50.868;4.382;2023-09-07T12:41:46;29.90;99.90
20070;DHT22;10195;50.868;4.382;2023-09-07T12:44:12;30.10;99.90
20070;DHT22;10195;50.868;4.382;2023-09-07T12:46:38;30.10;99.90
20070;DHT22;10195;50.868;4.382;2023-09-07T12:49:04;29.90;99.90
20070;DHT22;10195;50.868;4.382;2023-09-07T12:51:30;29.90;99.90
20070;DHT22;10195;50.868;4.382;2023-09-07T12:53:56;29.70;99.90
20070;DHT22;10195;50.868;4.382;2023-09-07T12:56:22;29.60;99.90
20070;DHT22;10195;50.868;4.382;2023-09-07T12:58:47;29.50;99.90
20070;DHT22;10195;50.868;4.382;2023-09-07T13:01:14;29.60;99.90
20070;DHT22;10195;50.868;4.382;2023-09-07T13:03:41;29.50;99.90
20070;DHT22;10195;50.868;4.382;2023-09-07T13:06:07;29.60;99.90
20070;DHT22;10195;50.868;4.382;2023-09-07T13:08:33;29.70;99.90
20070;DHT22;10195;50.868;4.382;2023-09-07T13:10:59;29.60;99.90
20070;DHT22;10195;50.868;4.382;2023-09-07T13:13:25;29.80;99.90
20070;DHT22;10195;50.868;4.382;2023-09-07T13:15:57;29.80;99.90
20070;DHT22;10195;50.868;4.382;2023-09-07T13:18:23;29.80;99.90
20070;DHT22;10195;50.868;4.382;2023-09-07T13:20:50;29.80;99.90
20070;DHT22;10195;50.868;4.382;2023-09-07T13:23:17;29.80;99.90
20070;DHT22;10195;50.868;4.382;2023-09-07T13:25:43;29.90;99.90
20070;DHT22;10195;50.868;4.382;2023-09-07T13:28:09;29.90;99.90
20070;DHT22;10195;50.868;4.382;2023-09-07T13:30:35;29.90;99.90
20070;DHT22;10195;50.868;4.382;2023-09-07T13:33:00;29.80;99.90
20070;DHT22;10195;50.868;4.382;2023-09-07T13:35:26;29.90;99.90
20070;DHT22;10195;50.868;4.382;2023-09-07T13:37:52;29.90;99.90
20070;DHT22;10195;50.868;4.382;2023-09-07T13:40:18;30.00;99.90
20070;DHT22;10195;50.868;4.382;2023-09-07T13:42:48;30.00;99.90
20070;DHT22;10195;50.868;4.382;2023-09-07T13:45:13;29.90;99.90
20070;DHT22;10195;50.868;4.382;2023-09-07T13:47:39;29.90;99.90
20070;DHT22;10195;50.868;4.382;2023-09-07T13:50:06;30.00;99.90
20070;DHT22;10195;50.868;4.382;2023-09-07T13:52:32;30.20;99.90
20070;DHT22;10195;50.868;4.382;2023-09-07T13:54:58;30.20;99.90
20070;DHT22;10195;50.868;4.382;2023-09-07T13:57:23;30.20;99.90
20070;DHT22;10195;50.868;4.382;2023-09-07T13:59:49;30.20;99.90
20070;DHT22;10195;50.868;4.382;2023-09-07T14:02:15;30.20;99.90
20070;DHT22;10195;50.868;4.382;2023-09-07T14:04:40;30.10;99.90
20070;DHT22;10195;50.868;4.382;2023-09-07T14:07:06;30.10;99.90
20070;DHT22;10195;50.868;4.382;2023-09-07T14:09:32;30.20;99.90
20070;DHT22;10195;50.868;4.382;2023-09-07T14:12:00;30.20;99.90
20070;DHT22;10195;50.868;4.382;2023-09-07T14:14:25;30.40;99.90
20070;DHT22;10195;50.868;4.382;2023-09-07T14:16:51;30.50;99.90
20070;DHT22;10195;50.868;4.382;2023-09-07T14:19:22;30.50;99.90
20070;DHT22;10195;50.868;4.382;2023-09-07T14:21:47;30.70;99.90
20070;DHT22;10195;50.868;4.382;2023-09-07T14:24:13;30.90;99.90
20070;DHT22;10195;50.868;4.382;2023-09-07T14:26:39;30.90;99.90
20070;DHT22;10195;50.868;4.382;2023-09-07T14:29:04;30.90;99.90
20070;DHT22;10195;50.868;4.382;2023-09-07T14:31:30;30.90;99.90
20070;DHT22;10195;50.868;4.382;2023-09-07T14:33:56;30.80;99.90
20070;DHT22;10195;50.868;4.382;2023-09-07T14:36:21;30.60;99.90
20070;DHT22;10195;50.868;4.382;2023-09-07T14:38:47;30.50;99.90
20070;DHT22;10195;50.868;4.382;2023-09-07T14:41:13;30.40;99.90
20070;DHT22;10195;50.868;4.382;2023-09-07T14:43:45;30.40;99.90
20070;DHT22;10195;50.868;4.382;2023-09-07T14:46:12;30.30;99.90
20070;DHT22;10195;50.868;4.382;2023-09-07T14:48:37;30.30;99.90
20070;DHT22;10195;50.868;4.382;2023-09-07T14:51:03;30.40;99.90
20070;DHT22;10195;50.868;4.382;2023-09-07T14:53:29;30.50;99.90
20070;DHT22;10195;50.868;4.382;2023-09-07T14:55:55;30.50;99.90
20070;DHT22;10195;50.868;4.382;2023-09-07T14:58:21;30.50;99.90
20070;DHT22;10195;50.868;4.382;2023-09-07T15:00:47;30.50;99.90
20070;DHT22;10195;50.868;4.382;2023-09-07T15:03:12;30.60;99.90
20070;DHT22;10195;50.868;4.382;2023-09-07T15:05:38;30.60;99.90
20070;DHT22;10195;50.868;4.382;2023-09-07T15:08:04;30.40;99.90
20070;DHT22;10195;50.868;4.382;2023-09-07T15:10:32;30.40;99.90
20070;DHT22;10195;50.868;4.382;2023-09-07T15:12:59;30.30;99.90
20070;DHT22;10195;50.868;4.382;2023-09-07T15:15:28;30.30;99.90
20070;DHT22;10195;50.868;4.382;2023-09-07T15:17:54;30.40;99.90
20070;DHT22;10195;50.868;4.382;2023-09-07T15:20:20;30.30;99.90
20070;DHT22;10195;50.868;4.382;2023-09-07T15:22:45;30.30;99.90
20070;DHT22;10195;50.868;4.382;2023-09-07T15:25:11;30.20;99.90
20070;DHT22;10195;50.868;4.382;2023-09-07T15:27:37;30.20;99.90